Muldon, Mississippi
Current Conditions -  °F | °C
As of 1:55 AM on Wednesday 26 Nov 2014 (Local Time) from KM40 Reporting Station
Clear Clear  
Wind Chill: 30°   Ceiling: Unl
Heat Index: 30°   Visibility: 10mi
Dew Point: 16°   Wind: 0mph
Humidity: 55%   Direction: NA
Pressure: 30.18"   Gusts: NA
Location:  33.8251°N, 88.6185°W
Report Text: KM40 260755Z AUTO 00000KT 10SM CLR M01/M09 A3018 RMK AO2
Loading
Personal Weather Stations






























Interactive Weather Map New forecast layout! Learn more

10-Day Weather Forecast

Advertisements
Track Severe Weather on mobile